createdAt,value
2023-03-10T00:02:01.890Z,8.31
2023-03-10T00:05:50.114Z,8.25
2023-03-10T00:09:32.922Z,8.24
2023-03-10T00:13:15.687Z,8.12
2023-03-10T00:16:59.726Z,8.14
2023-03-10T00:20:42.359Z,8.03
2023-03-10T00:24:25.127Z,7.95
2023-03-10T00:28:07.769Z,8.00
2023-03-10T00:31:50.456Z,8.08
2023-03-10T00:35:35.686Z,8.12
2023-03-10T00:39:18.381Z,8.24
2023-03-10T00:43:01.005Z,8.33
2023-03-10T00:46:43.787Z,8.32
2023-03-10T00:50:26.620Z,8.33
2023-03-10T00:54:10.779Z,8.25
2023-03-10T00:57:53.469Z,8.17
2023-03-10T01:01:38.097Z,8.18
2023-03-10T01:05:21.240Z,8.15
2023-03-10T01:09:04.855Z,8.11
2023-03-10T01:12:48.949Z,8.08
2023-03-10T01:16:32.004Z,8.07
2023-03-10T01:20:16.737Z,8.04
2023-03-10T01:23:59.436Z,7.97
2023-03-10T01:27:42.144Z,7.93
2023-03-10T01:31:26.372Z,7.84
2023-03-10T01:35:10.051Z,7.70
2023-03-10T01:38:53.621Z,7.65
2023-03-10T01:42:36.254Z,7.57
2023-03-10T01:46:45.917Z,7.50
2023-03-10T01:50:28.704Z,7.46
2023-03-10T01:54:16.052Z,7.39
2023-03-10T01:57:59.188Z,7.37
2023-03-10T02:01:42.060Z,7.29
2023-03-10T02:05:26.097Z,7.22
2023-03-10T02:09:09.761Z,7.21
2023-03-10T02:12:52.393Z,7.26
2023-03-10T02:16:35.606Z,7.26
2023-03-10T02:20:25.458Z,7.18
2023-03-10T02:24:15.240Z,7.13
2023-03-10T02:27:59.349Z,7.13
2023-03-10T02:31:42.210Z,7.13
2023-03-10T02:35:24.956Z,7.09
2023-03-10T02:39:07.618Z,7.06
2023-03-10T02:42:50.336Z,7.02
2023-03-10T02:46:34.504Z,6.91
2023-03-10T02:50:18.128Z,6.84
2023-03-10T02:54:01.235Z,6.81
2023-03-10T02:57:43.952Z,6.75
2023-03-10T03:01:27.266Z,6.74
2023-03-10T03:05:11.368Z,6.74
2023-03-10T03:08:54.152Z,6.71
2023-03-10T03:12:36.881Z,6.72
2023-03-10T03:16:19.843Z,6.69
2023-03-10T03:20:04.803Z,6.69
2023-03-10T03:23:48.884Z,6.68
2023-03-10T03:27:31.712Z,6.60
2023-03-10T03:31:19.060Z,6.60
2023-03-10T03:35:01.808Z,6.69
2023-03-10T03:38:45.272Z,6.66
2023-03-10T03:42:29.327Z,6.70
2023-03-10T03:46:12.240Z,6.74
2023-03-10T03:49:54.937Z,6.78
2023-03-10T03:53:37.657Z,6.87
2023-03-10T03:57:20.342Z,6.92
2023-03-10T04:01:04.777Z,6.96
2023-03-10T04:04:48.198Z,6.62
2023-03-10T04:08:30.863Z,6.54
2023-03-10T04:12:13.603Z,6.49
2023-03-10T04:15:57.565Z,6.62
2023-03-10T04:19:41.663Z,6.79
2023-03-10T04:23:24.451Z,6.86
2023-03-10T04:27:09.368Z,7.01
2023-03-10T04:30:52.097Z,7.18
2023-03-10T04:34:34.755Z,7.36
2023-03-10T04:38:23.111Z,7.44
2023-03-10T04:42:06.272Z,7.49
2023-03-10T04:45:49.490Z,7.52
2023-03-10T04:49:32.372Z,7.57
2023-03-10T04:53:15.091Z,7.72
2023-03-10T04:56:59.133Z,8.04
2023-03-10T05:00:53.196Z,8.27
2023-03-10T05:04:46.244Z,8.47
2023-03-10T05:08:29.039Z,8.59
2023-03-10T05:12:13.122Z,8.63
2023-03-10T05:15:55.835Z,8.62
2023-03-10T05:19:41.360Z,8.79
2023-03-10T05:23:24.146Z,8.88
2023-03-10T05:27:08.310Z,8.78
2023-03-10T05:30:52.425Z,8.87
2023-03-10T05:34:35.129Z,8.79
2023-03-10T05:38:18.029Z,8.83
2023-03-10T05:42:00.763Z,8.84
2023-03-10T05:45:43.410Z,8.79
2023-03-10T05:49:27.453Z,8.88
2023-03-10T05:53:10.091Z,8.82
2023-03-10T05:56:52.899Z,8.80
2023-03-10T06:00:35.727Z,8.87
2023-03-10T06:04:18.469Z,8.76
2023-03-10T06:08:02.569Z,8.81
2023-03-10T06:11:45.214Z,8.91
2023-03-10T06:15:28.038Z,8.92
2023-03-10T06:19:11.618Z,8.82
2023-03-10T06:22:54.320Z,8.85
2023-03-10T06:26:38.672Z,8.93
2023-03-10T06:30:21.903Z,8.89
2023-03-10T06:34:04.877Z,8.95
2023-03-10T06:37:47.554Z,9.00
2023-03-10T06:41:30.296Z,8.99
2023-03-10T06:45:17.176Z,8.94
2023-03-10T06:49:00.170Z,9.04
2023-03-10T06:52:43.270Z,9.15
2023-03-10T06:56:26.053Z,9.10
2023-03-10T07:00:11.703Z,8.90
2023-03-10T07:03:56.101Z,8.78
2023-03-10T07:07:38.787Z,8.83
2023-03-10T07:11:22.122Z,8.90
2023-03-10T07:15:05.165Z,8.91
2023-03-10T07:18:48.043Z,9.01
2023-03-10T07:22:32.039Z,9.09
2023-03-10T07:26:15.991Z,9.26
2023-03-10T07:29:58.804Z,9.46
2023-03-10T07:33:41.535Z,10.99
2023-03-10T07:37:24.210Z,11.37
2023-03-10T07:41:14.035Z,10.95
2023-03-10T07:44:58.508Z,10.49
2023-03-10T07:48:43.410Z,10.08
2023-03-10T07:52:27.524Z,9.87
2023-03-10T07:56:13.756Z,9.88
2023-03-10T07:59:56.521Z,9.83
2023-03-10T08:03:39.408Z,9.79
2023-03-10T08:07:22.626Z,9.93
2023-03-10T08:11:06.586Z,10.03
2023-03-10T08:14:51.696Z,10.14
2023-03-10T08:18:34.740Z,10.18
2023-03-10T08:22:17.623Z,10.06
2023-03-10T08:26:01.989Z,10.08
2023-03-10T08:29:44.692Z,10.15
2023-03-10T08:33:30.699Z,10.21
2023-03-10T08:37:13.610Z,10.30
2023-03-10T08:40:56.273Z,10.27
2023-03-10T08:44:39.072Z,10.38
2023-03-10T08:48:21.780Z,10.43
2023-03-10T08:52:06.118Z,10.49
2023-03-10T08:55:48.901Z,10.62
2023-03-10T08:59:31.704Z,10.82
2023-03-10T09:03:15.525Z,10.99
2023-03-10T09:06:58.378Z,11.12
2023-03-10T09:10:43.466Z,11.23
2023-03-10T09:14:26.192Z,11.37
2023-03-10T09:18:09.560Z,11.43
2023-03-10T09:21:52.248Z,11.68
2023-03-10T09:25:35.205Z,11.84
2023-03-10T09:29:20.367Z,12.03
2023-03-10T09:33:06.240Z,12.24
2023-03-10T09:36:49.097Z,12.47
2023-03-10T09:40:32.838Z,12.63
2023-03-10T09:44:25.952Z,12.67
2023-03-10T09:48:20.779Z,12.80
2023-03-10T09:52:18.414Z,12.89
2023-03-10T09:56:01.309Z,12.84
2023-03-10T09:59:46.988Z,12.95
2023-03-10T10:03:42.947Z,12.96
2023-03-10T10:07:41.946Z,12.43
2023-03-10T10:11:24.766Z,11.90
2023-03-10T10:15:16.213Z,11.11
2023-03-10T10:19:04.496Z,10.78
2023-03-10T10:22:47.973Z,10.74
2023-03-10T10:26:30.764Z,10.78
2023-03-10T10:30:31.036Z,10.32
2023-03-10T10:34:21.060Z,10.14
2023-03-10T10:38:08.291Z,9.36
2023-03-10T10:41:51.147Z,9.29
2023-03-10T10:45:36.656Z,9.12
2023-03-10T10:49:24.569Z,9.00
2023-03-10T10:53:19.899Z,9.10
2023-03-10T10:57:02.978Z,9.15
2023-03-10T11:00:55.510Z,9.23
2023-03-10T11:04:46.320Z,9.35
2023-03-10T11:08:34.813Z,9.47
2023-03-10T11:12:22.030Z,9.65
2023-03-10T11:16:12.449Z,9.51
2023-03-10T11:20:01.747Z,9.69
2023-03-10T11:23:47.657Z,9.66
2023-03-10T11:27:42.089Z,9.59
2023-03-10T11:31:34.637Z,9.48
2023-03-10T11:35:23.457Z,9.56
2023-03-10T11:39:12.341Z,9.72
2023-03-10T11:42:58.992Z,9.87
2023-03-10T11:46:46.836Z,10.02
2023-03-10T11:50:34.402Z,10.30
2023-03-10T11:54:21.468Z,10.45
2023-03-10T11:58:05.101Z,10.65
2023-03-10T12:01:52.426Z,10.99
2023-03-10T12:05:45.060Z,11.12
2023-03-10T12:09:34.764Z,11.10
2023-03-10T12:13:23.627Z,11.37
2023-03-10T12:17:08.260Z,11.68
2023-03-10T12:21:13.816Z,11.62
2023-03-10T12:24:56.504Z,11.52
2023-03-10T12:28:39.259Z,11.40
2023-03-10T12:32:47.182Z,11.41
2023-03-10T12:36:36.467Z,11.42
2023-03-10T12:40:48.890Z,11.53
2023-03-10T12:44:35.292Z,11.49
2023-03-10T12:48:22.276Z,11.48
2023-03-10T12:52:19.487Z,11.50
2023-03-10T12:56:33.912Z,11.48
2023-03-10T13:00:24.923Z,11.40
2023-03-10T13:04:09.338Z,11.58
2023-03-10T13:07:54.508Z,11.90
2023-03-10T13:11:39.293Z,12.17
2023-03-10T13:15:25.091Z,11.94
2023-03-10T13:19:20.681Z,11.73
2023-03-10T13:23:03.483Z,11.57
2023-03-10T13:26:46.212Z,11.58
2023-03-10T13:30:29.060Z,11.63
2023-03-10T13:34:20.259Z,11.69
2023-03-10T13:38:07.872Z,11.34
2023-03-10T13:41:52.804Z,11.54
2023-03-10T13:45:35.485Z,11.37
2023-03-10T13:49:22.119Z,11.08
2023-03-10T13:53:04.895Z,10.89
2023-03-10T13:56:49.133Z,10.74
2023-03-10T14:00:32.083Z,10.79
2023-03-10T14:04:17.891Z,10.72
2023-03-10T14:08:02.300Z,10.53
2023-03-10T14:11:46.848Z,10.36
2023-03-10T14:15:31.696Z,10.27
2023-03-10T14:19:15.034Z,10.17
2023-03-10T14:22:58.074Z,10.17
2023-03-10T14:26:42.243Z,10.37
2023-03-10T14:30:27.878Z,10.34
2023-03-10T14:34:13.739Z,10.37
2023-03-10T14:37:56.943Z,10.49
2023-03-10T14:41:39.648Z,10.52
2023-03-10T14:45:29.214Z,10.64
2023-03-10T14:49:15.316Z,10.78
2023-03-10T14:52:58.336Z,10.91
2023-03-10T14:56:40.998Z,10.33
2023-03-10T15:00:24.569Z,9.99
2023-03-10T15:04:13.173Z,9.77
2023-03-10T15:07:56.001Z,9.77
2023-03-10T15:11:38.996Z,9.49
2023-03-10T15:15:23.994Z,9.16
2023-03-10T15:19:08.168Z,9.05
2023-03-10T15:22:50.971Z,9.02
2023-03-10T15:26:33.627Z,8.84
2023-03-10T15:30:19.645Z,8.73
2023-03-10T15:34:05.252Z,8.65
2023-03-10T15:37:50.546Z,8.69
2023-03-10T15:41:36.161Z,8.69
2023-03-10T15:45:19.680Z,8.61
2023-03-10T15:49:03.219Z,8.63
2023-03-10T15:52:49.311Z,8.27
2023-03-10T15:56:31.961Z,8.10
2023-03-10T16:00:16.876Z,7.88
2023-03-10T16:04:01.765Z,7.89
2023-03-10T16:07:44.627Z,7.87
2023-03-10T16:11:29.082Z,7.72
2023-03-10T16:15:12.766Z,7.80
2023-03-10T16:18:55.697Z,7.89
2023-03-10T16:22:40.666Z,7.90
2023-03-10T16:26:24.647Z,7.91
2023-03-10T16:30:10.171Z,7.92
2023-03-10T16:33:52.930Z,7.91
2023-03-10T16:37:35.539Z,7.99
2023-03-10T16:41:18.671Z,8.01
2023-03-10T16:45:01.361Z,8.03
2023-03-10T16:48:46.611Z,8.00
2023-03-10T16:52:29.297Z,8.05
2023-03-10T16:56:11.969Z,7.92
2023-03-10T16:59:54.791Z,7.88
2023-03-10T17:03:39.894Z,7.90
2023-03-10T17:07:24.000Z,8.14
2023-03-10T17:11:07.274Z,8.55
2023-03-10T17:14:55.352Z,8.77
2023-03-10T17:18:38.022Z,8.75
2023-03-10T17:22:21.096Z,8.75
2023-03-10T17:26:05.243Z,8.77
2023-03-10T17:29:47.977Z,8.55
2023-03-10T17:33:33.943Z,8.40
2023-03-10T17:37:16.677Z,8.14
2023-03-10T17:41:00.949Z,7.87
2023-03-10T17:44:45.195Z,7.67
2023-03-10T17:48:28.254Z,7.54
2023-03-10T17:52:10.966Z,7.43
2023-03-10T17:55:54.086Z,7.36
2023-03-10T17:59:39.093Z,7.29
2023-03-10T18:03:23.609Z,7.22
2023-03-10T18:07:06.748Z,7.12
2023-03-10T18:11:00.278Z,7.06
2023-03-10T18:14:43.349Z,6.97
2023-03-10T18:18:27.458Z,6.87
2023-03-10T18:22:10.138Z,6.77
2023-03-10T18:25:53.029Z,6.74
2023-03-10T18:29:35.664Z,6.68
2023-03-10T18:33:18.906Z,6.62
2023-03-10T18:37:02.956Z,6.69
2023-03-10T18:40:45.970Z,6.69
2023-03-10T18:44:28.925Z,6.71
2023-03-10T18:48:12.702Z,6.75
2023-03-10T18:51:58.354Z,6.80
2023-03-10T18:55:42.524Z,6.77
2023-03-10T18:59:25.298Z,6.74
2023-03-10T19:03:10.311Z,6.32
2023-03-10T19:06:53.117Z,6.09
2023-03-10T19:10:35.828Z,6.06
2023-03-10T19:14:19.875Z,5.99
2023-03-10T19:18:02.694Z,5.93
2023-03-10T19:21:45.329Z,5.94
2023-03-10T19:25:28.039Z,5.98
2023-03-10T19:29:11.035Z,6.06
2023-03-10T19:32:55.212Z,5.95
2023-03-10T19:36:37.880Z,5.98
2023-03-10T19:40:22.990Z,5.97
2023-03-10T19:44:06.276Z,5.93
2023-03-10T19:47:49.347Z,5.94
2023-03-10T19:51:33.732Z,5.93
2023-03-10T19:55:22.850Z,5.98
2023-03-10T19:59:06.228Z,6.03
2023-03-10T20:02:48.862Z,6.08
2023-03-10T20:06:33.179Z,6.09
2023-03-10T20:10:17.211Z,6.15
2023-03-10T20:13:59.892Z,6.18
2023-03-10T20:17:43.045Z,6.16
2023-03-10T20:21:25.898Z,6.13
2023-03-10T20:25:11.932Z,6.13
2023-03-10T20:28:54.749Z,6.13
2023-03-10T20:32:37.760Z,6.12
2023-03-10T20:36:20.446Z,6.11
2023-03-10T20:40:05.720Z,6.07
2023-03-10T20:43:50.139Z,6.10
2023-03-10T20:47:33.090Z,6.05
2023-03-10T20:51:18.017Z,5.99
2023-03-10T20:55:01.615Z,6.03
2023-03-10T20:58:44.318Z,6.04
2023-03-10T21:02:28.505Z,6.08
2023-03-10T21:06:11.222Z,6.11
2023-03-10T21:09:53.910Z,5.89
2023-03-10T21:13:36.915Z,5.67
2023-03-10T21:17:19.617Z,5.52
2023-03-10T21:21:09.401Z,5.45
2023-03-10T21:24:53.183Z,5.39
2023-03-10T21:28:36.366Z,5.30
2023-03-10T21:32:19.093Z,4.84
2023-03-10T21:36:02.094Z,4.17
2023-03-10T21:39:46.146Z,3.93
2023-03-10T21:43:28.806Z,3.80
2023-03-10T21:47:11.460Z,3.82
2023-03-10T21:50:54.134Z,3.79
2023-03-10T21:54:36.789Z,3.81
2023-03-10T21:58:22.018Z,3.85
2023-03-10T22:02:04.858Z,3.89
2023-03-10T22:05:47.839Z,3.89
2023-03-10T22:09:31.205Z,3.96
2023-03-10T22:13:14.266Z,3.95
2023-03-10T22:16:58.278Z,3.97
2023-03-10T22:20:41.080Z,4.05
2023-03-10T22:24:23.825Z,3.98
2023-03-10T22:28:06.594Z,3.96
2023-03-10T22:31:52.994Z,3.98
2023-03-10T22:35:37.853Z,3.92
2023-03-10T22:39:21.377Z,3.81
2023-03-10T22:43:04.099Z,3.23
2023-03-10T22:46:47.967Z,2.78
2023-03-10T22:50:33.587Z,2.62
2023-03-10T22:54:17.602Z,2.47
2023-03-10T22:58:00.285Z,2.46
2023-03-10T23:01:44.186Z,2.53
2023-03-10T23:05:28.277Z,2.60
2023-03-10T23:09:12.330Z,2.63
2023-03-10T23:13:01.086Z,2.64
2023-03-10T23:16:43.883Z,2.61
2023-03-10T23:20:29.642Z,2.63
2023-03-10T23:24:12.396Z,2.50
2023-03-10T23:27:55.191Z,2.46
2023-03-10T23:31:39.310Z,2.41
2023-03-10T23:35:23.916Z,3.14
2023-03-10T23:39:07.472Z,2.89
2023-03-10T23:42:50.196Z,2.65
2023-03-10T23:46:32.889Z,2.43
2023-03-10T23:50:20.121Z,2.23
2023-03-10T23:54:02.921Z,2.16
2023-03-10T23:57:45.714Z,2.11
